createdAt,value
2022-08-24T00:00:46.764Z,99277.06
2022-08-24T00:03:15.669Z,99275.19
2022-08-24T00:05:44.500Z,99281.41
2022-08-24T00:08:13.520Z,99279.81
2022-08-24T00:10:42.993Z,99281.97
2022-08-24T00:13:12.240Z,99284.16
2022-08-24T00:15:41.576Z,99288.53
2022-08-24T00:18:12.225Z,99289.59
2022-08-24T00:20:45.341Z,99288.81
2022-08-24T00:23:14.401Z,99288.56
2022-08-24T00:25:43.237Z,99285.88
2022-08-24T00:28:12.472Z,99279.66
2022-08-24T00:30:41.604Z,99284.53
2022-08-24T00:33:11.748Z,99284.78
2022-08-24T00:35:40.573Z,99282.59
2022-08-24T00:38:09.559Z,99285.88
2022-08-24T00:40:42.708Z,99281.56
2022-08-24T00:43:12.658Z,99284.53
2022-08-24T00:45:47.427Z,99279.38
2022-08-24T00:48:23.116Z,99290.72
2022-08-24T00:51:00.483Z,99283.97
2022-08-24T00:53:35.980Z,99285.88
2022-08-24T00:56:10.255Z,99284.78
2022-08-24T00:58:46.294Z,99285.06
2022-08-24T01:01:23.078Z,99289.09
2022-08-24T01:03:56.981Z,99282.06
2022-08-24T01:06:26.149Z,99284.25
2022-08-24T01:08:56.594Z,99283.16
2022-08-24T01:11:33.696Z,99275.03
2022-08-24T01:14:05.407Z,99281.50
2022-08-24T01:16:51.656Z,99278.53
2022-08-24T01:19:34.298Z,99286.91
2022-08-24T01:22:20.811Z,99289.91
2022-08-24T01:24:51.352Z,99285.28
2022-08-24T01:27:23.902Z,99284.19
2022-08-24T01:30:00.011Z,99284.19
2022-08-24T01:32:29.135Z,99283.13
2022-08-24T01:34:58.856Z,99286.38
2022-08-24T01:37:28.877Z,99285.84
2022-08-24T01:40:00.626Z,99281.75
2022-08-24T01:42:31.061Z,99278.75
2022-08-24T01:44:59.779Z,99272.22
2022-08-24T01:47:28.903Z,99266.81
2022-08-24T01:49:59.140Z,99268.47
2022-08-24T01:52:43.441Z,99265.47
2022-08-24T01:55:22.502Z,99271.41
2022-08-24T01:57:51.910Z,99273.31
2022-08-24T02:00:20.876Z,99267.88
2022-08-24T02:02:49.996Z,99265.19
2022-08-24T02:05:19.369Z,99277.41
2022-08-24T02:07:48.890Z,99280.66
2022-08-24T02:10:20.233Z,99272.81
2022-08-24T02:12:58.771Z,99272.81
2022-08-24T02:15:31.615Z,99265.19
2022-08-24T02:18:01.634Z,99269.81
2022-08-24T02:20:30.585Z,99278.75
2022-08-24T02:22:59.677Z,99269.59
2022-08-24T02:25:30.874Z,99278.25
2022-08-24T02:28:00.638Z,99278.81
2022-08-24T02:30:32.291Z,99279.38
2022-08-24T02:33:02.704Z,99273.94
2022-08-24T02:35:32.734Z,99271.00
2022-08-24T02:38:03.121Z,99272.09
2022-08-24T02:40:34.868Z,99275.91
2022-08-24T02:43:06.032Z,99280.50
2022-08-24T02:45:39.940Z,99278.06
2022-08-24T02:48:08.943Z,99281.06
2022-08-24T02:50:42.725Z,99282.16
2022-08-24T02:53:14.149Z,99281.63
2022-08-24T02:55:45.550Z,99281.06
2022-08-24T02:58:18.932Z,99288.69
2022-08-24T03:00:50.416Z,99285.69
2022-08-24T03:03:21.854Z,99290.28
2022-08-24T03:05:50.722Z,99293.81
2022-08-24T03:08:21.117Z,99290.28
2022-08-24T03:10:51.369Z,99290.28
2022-08-24T03:13:20.349Z,99295.19
2022-08-24T03:15:49.348Z,99285.97
2022-08-24T03:18:18.161Z,99290.00
2022-08-24T03:20:55.327Z,99291.09
2022-08-24T03:23:25.010Z,99288.66
2022-08-24T03:25:56.495Z,99295.69
2022-08-24T03:28:26.906Z,99294.09
2022-08-24T03:30:57.095Z,99298.41
2022-08-24T03:33:26.118Z,99296.22
2022-08-24T03:35:55.419Z,99296.78
2022-08-24T03:38:25.644Z,99298.13
2022-08-24T03:40:55.868Z,99308.44
2022-08-24T03:43:42.260Z,99300.03
2022-08-24T03:46:12.589Z,99305.16
2022-08-24T03:48:44.472Z,99305.44
2022-08-24T03:51:17.866Z,99301.91
2022-08-24T03:53:49.101Z,99308.69
2022-08-24T03:56:19.835Z,99316.28
2022-08-24T03:58:49.641Z,99318.97
2022-08-24T04:01:19.742Z,99319.78
2022-08-24T04:03:50.811Z,99326.03
2022-08-24T04:06:21.984Z,99321.13
2022-08-24T04:08:51.355Z,99324.94
2022-08-24T04:11:28.228Z,99319.81
2022-08-24T04:13:59.703Z,99322.50
2022-08-24T04:16:30.646Z,99329.81
2022-08-24T04:19:14.978Z,99327.13
2022-08-24T04:21:44.621Z,99333.59
2022-08-24T04:24:14.827Z,99318.44
2022-08-24T04:26:46.185Z,99323.59
2022-08-24T04:29:21.376Z,99324.94
2022-08-24T04:31:54.004Z,99321.13
2022-08-24T04:34:24.374Z,99326.25
2022-08-24T04:36:53.420Z,99326.00
2022-08-24T04:39:22.166Z,99320.03
2022-08-24T04:42:14.724Z,99322.22
2022-08-24T04:44:44.784Z,99323.84
2022-08-24T04:47:15.672Z,99320.03
2022-08-24T04:49:44.507Z,99326.56
2022-08-24T04:52:13.435Z,99329.81
2022-08-24T04:54:43.989Z,99329.81
2022-08-24T04:57:19.790Z,99333.59
2022-08-24T04:59:49.582Z,99342.00
2022-08-24T05:02:18.969Z,99350.13
2022-08-24T05:04:50.919Z,99349.84
2022-08-24T05:07:20.149Z,99349.31
2022-08-24T05:09:48.925Z,99339.56
2022-08-24T05:12:23.459Z,99347.69
2022-08-24T05:15:00.812Z,99351.47
2022-08-24T05:17:32.537Z,99359.06
2022-08-24T05:20:01.510Z,99362.59
2022-08-24T05:22:32.622Z,99366.09
2022-08-24T05:25:01.630Z,99360.41
2022-08-24T05:27:33.949Z,99355.25
2022-08-24T05:30:03.333Z,99359.56
2022-08-24T05:32:32.269Z,99353.06
2022-08-24T05:35:04.844Z,99356.34
2022-08-24T05:37:37.157Z,99356.56
2022-08-24T05:40:20.728Z,99355.22
2022-08-24T05:42:55.908Z,99358.19
2022-08-24T05:45:24.902Z,99354.13
2022-08-24T05:47:53.889Z,99345.69
2022-08-24T05:50:45.818Z,99355.97
2022-08-24T05:53:15.754Z,99350.00
2022-08-24T05:55:47.068Z,99356.50
2022-08-24T05:58:23.160Z,99360.81
2022-08-24T06:01:01.147Z,99358.88
2022-08-24T06:03:29.909Z,99367.56
2022-08-24T06:05:58.853Z,99365.94
2022-08-24T06:08:27.729Z,99364.81
2022-08-24T06:10:56.903Z,99369.72
2022-08-24T06:13:27.119Z,99366.41
2022-08-24T06:16:20.725Z,99365.88
2022-08-24T06:18:51.321Z,99363.41
2022-08-24T06:21:23.614Z,99370.72
2022-08-24T06:23:53.627Z,99362.56
2022-08-24T06:26:40.901Z,99373.69
2022-08-24T06:29:12.542Z,99370.16
2022-08-24T06:31:54.383Z,99368.75
2022-08-24T06:34:26.929Z,99367.13
2022-08-24T06:36:56.017Z,99371.69
2022-08-24T06:39:27.842Z,99367.59
2022-08-24T06:41:58.661Z,99365.34
2022-08-24T06:44:34.299Z,99374.78
2022-08-24T06:47:13.788Z,99370.44
2022-08-24T06:49:42.860Z,99382.34
2022-08-24T06:52:12.382Z,99379.34
2022-08-24T06:54:41.529Z,99376.88
2022-08-24T06:57:10.341Z,99375.22
2022-08-24T06:59:43.172Z,99386.84
2022-08-24T07:02:15.926Z,99383.31
2022-08-24T07:04:46.208Z,99380.56
2022-08-24T07:07:33.306Z,99381.06
2022-08-24T07:10:03.335Z,99377.72
2022-08-24T07:12:32.729Z,99377.06
2022-08-24T07:15:02.893Z,99381.63
2022-08-24T07:17:31.758Z,99383.94
2022-08-24T07:20:00.527Z,99383.03
2022-08-24T07:22:49.543Z,99381.91
2022-08-24T07:25:19.359Z,99387.25
2022-08-24T07:27:49.671Z,99389.41
2022-08-24T07:30:27.945Z,99388.00
2022-08-24T07:32:59.287Z,99391.78
2022-08-24T07:35:32.450Z,99390.69
2022-08-24T07:38:02.975Z,99393.38
2022-08-24T07:40:36.460Z,99389.00
2022-08-24T07:43:18.159Z,99388.91
2022-08-24T07:45:52.430Z,99388.69
2022-08-24T07:48:21.480Z,99387.69
2022-08-24T07:50:53.309Z,99390.94
2022-08-24T07:53:27.867Z,99393.00
2022-08-24T07:56:01.318Z,99408.97
2022-08-24T07:58:31.494Z,99402.16
2022-08-24T08:01:02.466Z,99403.78
2022-08-24T08:03:33.563Z,99405.16
2022-08-24T08:06:11.179Z,99403.84
2022-08-24T08:08:45.704Z,99412.56
2022-08-24T08:11:14.815Z,99410.38
2022-08-24T08:16:21.395Z,99419.06
2022-08-24T08:18:56.501Z,99422.09
2022-08-24T08:21:52.370Z,99420.16
2022-08-24T08:24:21.204Z,99422.66
2022-08-24T08:26:55.735Z,99415.59
2022-08-24T08:29:32.895Z,99422.44
2022-08-24T08:32:04.450Z,99425.16
2022-08-24T08:34:34.154Z,99422.44
2022-08-24T08:37:04.488Z,99420.78
2022-08-24T08:39:33.729Z,99430.06
2022-08-24T08:42:37.286Z,99436.63
2022-08-24T08:45:42.536Z,99445.91
2022-08-24T08:49:35.056Z,99444.22
2022-08-24T08:52:41.477Z,99428.91
2022-08-24T08:55:29.214Z,99431.56
2022-08-24T08:58:29.844Z,99433.56
2022-08-24T09:01:10.860Z,99437.78
2022-08-24T09:04:48.727Z,99429.09
2022-08-24T09:07:40.638Z,99434.53
2022-08-24T09:10:51.946Z,99423.19
2022-08-24T09:13:44.539Z,99422.72
2022-08-24T09:16:39.090Z,99418.56
2022-08-24T09:19:41.427Z,99415.88
2022-08-24T09:22:15.898Z,99415.81
2022-08-24T09:25:07.361Z,99418.88
2022-08-24T09:28:30.088Z,99421.22
2022-08-24T09:31:51.751Z,99412.97
2022-08-24T09:34:37.662Z,99421.38
2022-08-24T09:37:31.898Z,99418.53
2022-08-24T09:40:27.214Z,99416.31
2022-08-24T09:43:53.472Z,99413.09
2022-08-24T09:47:23.529Z,99413.09
2022-08-24T09:50:35.394Z,99411.03
2022-08-24T09:53:46.538Z,99405.16
2022-08-24T09:56:53.823Z,99407.81
2022-08-24T09:59:54.276Z,99405.19
2022-08-24T10:02:50.482Z,99403.47
2022-08-24T10:05:37.015Z,99404.09
2022-08-24T10:08:21.406Z,99395.81
2022-08-24T10:11:00.085Z,99395.00
2022-08-24T10:13:56.650Z,99395.50
2022-08-24T10:16:40.015Z,99401.28
2022-08-24T10:19:39.413Z,99398.94
2022-08-24T10:22:32.595Z,99392.06
2022-08-24T10:25:32.546Z,99386.38
2022-08-24T10:28:41.858Z,99398.34
2022-08-24T10:31:14.523Z,99390.97
2022-08-24T10:34:04.386Z,99383.66
2022-08-24T10:37:03.685Z,99390.63
2022-08-24T10:40:13.290Z,99383.75
2022-08-24T10:43:35.894Z,99379.69
2022-08-24T10:46:40.609Z,99372.88
2022-08-24T10:50:21.137Z,99370.03
2022-08-24T10:53:21.039Z,99367.38
2022-08-24T10:56:05.681Z,99370.97
2022-08-24T10:58:53.356Z,99374.19
2022-08-24T11:01:31.303Z,99367.03
2022-08-24T11:04:09.812Z,99370.81
2022-08-24T11:06:41.839Z,99370.91
2022-08-24T11:09:19.762Z,99377.44
2022-08-24T11:11:52.450Z,99372.25
2022-08-24T11:14:32.096Z,99373.81
2022-08-24T11:17:18.193Z,99383.59
2022-08-24T11:19:47.450Z,99381.09
2022-08-24T11:23:01.248Z,99381.31
2022-08-24T11:25:33.534Z,99375.47
2022-08-24T11:28:11.081Z,99380.56
2022-08-24T11:30:42.349Z,99380.19
2022-08-24T11:33:30.948Z,99385.78
2022-08-24T11:36:01.563Z,99380.13
2022-08-24T11:38:35.028Z,99387.50
2022-08-24T11:41:14.587Z,99393.59
2022-08-24T11:44:02.086Z,99389.75
2022-08-24T11:46:46.892Z,99380.44
2022-08-24T11:49:34.311Z,99383.28
2022-08-24T11:52:12.876Z,99389.41
2022-08-24T11:54:58.517Z,99390.66
2022-08-24T11:57:47.579Z,99387.81
2022-08-24T12:00:22.037Z,99397.13
2022-08-24T12:03:02.696Z,99394.06
2022-08-24T12:05:45.885Z,99384.97
2022-08-24T12:08:28.741Z,99393.66
2022-08-24T12:11:09.771Z,99399.38
2022-08-24T12:13:49.298Z,99391.75
2022-08-24T12:16:31.418Z,99390.28
2022-08-24T12:19:10.304Z,99386.78
2022-08-24T12:21:45.376Z,99384.97
2022-08-24T12:24:21.340Z,99382.94
2022-08-24T12:27:00.677Z,99380.56
2022-08-24T12:29:38.261Z,99383.19
2022-08-24T12:32:16.449Z,99380.31
2022-08-24T12:34:58.850Z,99375.56
2022-08-24T12:37:35.041Z,99378.75
2022-08-24T12:40:15.322Z,99375.25
2022-08-24T12:42:52.755Z,99374.31
2022-08-24T12:45:24.418Z,99365.50
2022-08-24T12:48:02.705Z,99363.25
2022-08-24T12:50:45.481Z,99366.00
2022-08-24T12:53:50.055Z,99363.88
2022-08-24T12:56:57.915Z,99374.69
2022-08-24T12:59:33.318Z,99365.81
2022-08-24T13:02:08.373Z,99371.75
2022-08-24T13:04:55.572Z,99370.78
2022-08-24T13:07:32.981Z,99368.84
2022-08-24T13:10:14.680Z,99367.66
2022-08-24T13:13:13.462Z,99371.03
2022-08-24T13:16:03.625Z,99372.66
2022-08-24T13:19:33.902Z,99362.13
2022-08-24T13:22:49.061Z,99367.16
2022-08-24T13:25:53.610Z,99367.16
2022-08-24T13:28:56.853Z,99358.03
2022-08-24T13:31:34.683Z,99359.19
2022-08-24T13:34:44.417Z,99367.00
2022-08-24T13:37:19.088Z,99361.22
2022-08-24T13:40:10.029Z,99349.28
2022-08-24T13:43:11.754Z,99358.72
2022-08-24T13:45:53.713Z,99353.84
2022-08-24T13:48:45.172Z,99353.75
2022-08-24T13:51:34.759Z,99353.44
2022-08-24T13:54:31.507Z,99358.31
2022-08-24T13:57:30.865Z,99361.38
2022-08-24T14:00:34.333Z,99358.81
2022-08-24T14:03:30.289Z,99355.09
2022-08-24T14:06:21.368Z,99352.34
2022-08-24T14:09:04.834Z,99347.31
2022-08-24T14:12:07.432Z,99351.06
2022-08-24T14:15:02.533Z,99350.66
2022-08-24T14:17:53.895Z,99347.53
2022-08-24T14:21:09.131Z,99342.41
2022-08-24T14:23:58.305Z,99341.16
2022-08-24T14:27:10.489Z,99344.16
2022-08-24T14:29:45.462Z,99343.91
2022-08-24T14:32:32.751Z,99337.56
2022-08-24T14:35:37.419Z,99336.34
2022-08-24T14:38:50.668Z,99334.94
2022-08-24T14:41:50.297Z,99340.31
2022-08-24T14:44:54.356Z,99329.00
2022-08-24T14:47:42.028Z,99325.25
2022-08-24T14:50:21.693Z,99322.06
2022-08-24T14:53:10.742Z,99322.75
2022-08-24T14:55:56.968Z,99324.09
2022-08-24T14:58:44.830Z,99321.75
2022-08-24T15:01:42.517Z,99330.38
2022-08-24T15:04:44.494Z,99322.09
2022-08-24T15:07:32.645Z,99325.16
2022-08-24T15:10:05.761Z,99323.19
2022-08-24T15:12:42.739Z,99318.72
2022-08-24T15:15:21.742Z,99324.41
2022-08-24T15:18:06.406Z,99312.06
2022-08-24T15:20:58.015Z,99318.25
2022-08-24T15:23:57.246Z,99319.09
2022-08-24T15:26:46.074Z,99309.38
2022-08-24T15:29:21.498Z,99320.06
2022-08-24T15:32:07.987Z,99309.91
2022-08-24T15:34:45.583Z,99309.13
2022-08-24T15:37:17.059Z,99309.13
2022-08-24T15:39:45.898Z,99313.31
2022-08-24T15:42:16.909Z,99307.81
2022-08-24T15:44:50.220Z,99317.50
2022-08-24T15:47:28.894Z,99313.78
2022-08-24T15:50:02.952Z,99308.31
2022-08-24T15:52:51.885Z,99305.09
2022-08-24T15:55:47.894Z,99303.31
2022-08-24T15:58:42.430Z,99302.81
2022-08-24T16:01:42.332Z,99309.25
2022-08-24T16:04:35.428Z,99309.72
2022-08-24T16:07:05.930Z,99307.47
2022-08-24T16:09:38.868Z,99304.25
2022-08-24T16:12:16.435Z,99303.25
2022-08-24T16:14:50.338Z,99300.19
2022-08-24T16:17:35.987Z,99301.00
2022-08-24T16:20:12.399Z,99304.22
2022-08-24T16:22:57.015Z,99299.72
2022-08-24T16:25:32.845Z,99308.06
2022-08-24T16:28:12.768Z,99307.56
2022-08-24T16:30:52.599Z,99307.19
2022-08-24T16:33:45.730Z,99299.13
2022-08-24T16:36:18.063Z,99302.50
2022-08-24T16:38:51.511Z,99301.53
2022-08-24T16:41:26.139Z,99304.91
2022-08-24T16:43:55.164Z,99302.78
2022-08-24T16:46:26.934Z,99301.00
2022-08-24T16:48:55.988Z,99297.28
2022-08-24T16:51:26.263Z,99300.97
2022-08-24T16:53:58.815Z,99298.22
2022-08-24T16:56:30.238Z,99303.81
2022-08-24T16:59:00.488Z,99303.94
2022-08-24T17:01:30.585Z,99306.00
2022-08-24T17:03:59.547Z,99306.13
2022-08-24T17:06:28.572Z,99299.06
2022-08-24T17:09:00.570Z,99309.00
2022-08-24T17:11:29.848Z,99304.16
2022-08-24T17:13:58.640Z,99303.16
2022-08-24T17:16:28.999Z,99302.97
2022-08-24T17:19:01.180Z,99305.03
2022-08-24T17:21:30.337Z,99303.34
2022-08-24T17:24:01.769Z,99303.78
2022-08-24T17:26:33.028Z,99309.06
2022-08-24T17:29:09.527Z,99318.81
2022-08-24T17:31:40.679Z,99318.31
2022-08-24T17:34:11.503Z,99322.66
2022-08-24T17:36:43.694Z,99331.47
2022-08-24T17:39:16.707Z,99328.88
2022-08-24T17:41:47.135Z,99331.22
2022-08-24T17:44:25.175Z,99337.00
2022-08-24T17:46:59.085Z,99346.09
2022-08-24T17:49:30.281Z,99336.59
2022-08-24T17:52:28.003Z,99336.41
2022-08-24T17:55:14.615Z,99344.09
2022-08-24T17:57:49.039Z,99343.09
2022-08-24T18:00:20.714Z,99349.16
2022-08-24T18:02:52.097Z,99347.16
2022-08-24T18:05:22.231Z,99346.88
2022-08-24T18:07:58.940Z,99350.81
2022-08-24T18:10:32.773Z,99354.47
2022-08-24T18:13:04.216Z,99363.88
2022-08-24T18:15:40.305Z,99357.69
2022-08-24T18:18:12.536Z,99367.00
2022-08-24T18:20:43.864Z,99368.72
2022-08-24T18:23:14.394Z,99360.13
2022-08-24T18:25:53.783Z,99366.16
2022-08-24T18:28:24.718Z,99372.84
2022-08-24T18:30:54.248Z,99372.13
2022-08-24T18:33:24.935Z,99371.38
2022-08-24T18:35:54.692Z,99376.41
2022-08-24T18:38:27.293Z,99377.34
2022-08-24T18:40:58.766Z,99389.13
2022-08-24T18:43:31.295Z,99385.88
2022-08-24T18:46:06.908Z,99394.69
2022-08-24T18:48:36.434Z,99393.44
2022-08-24T18:51:07.286Z,99395.38
2022-08-24T18:53:36.999Z,99401.41
2022-08-24T18:56:12.453Z,99402.59
2022-08-24T18:58:42.405Z,99396.72
2022-08-24T19:01:13.331Z,99394.31
2022-08-24T19:03:43.639Z,99397.91
2022-08-24T19:06:12.488Z,99396.88
2022-08-24T19:08:45.155Z,99401.31
2022-08-24T19:11:19.864Z,99394.03
2022-08-24T19:13:49.802Z,99398.44
2022-08-24T19:16:18.881Z,99397.63
2022-08-24T19:18:51.122Z,99397.19
2022-08-24T19:21:21.155Z,99393.41
2022-08-24T19:23:51.041Z,99394.38
2022-08-24T19:26:25.282Z,99398.47
2022-08-24T19:28:54.982Z,99398.41
2022-08-24T19:31:30.049Z,99393.03
2022-08-24T19:34:03.431Z,99395.81
2022-08-24T19:36:33.226Z,99398.03
2022-08-24T19:39:03.854Z,99397.31
2022-08-24T19:41:39.802Z,99401.44
2022-08-24T19:44:32.584Z,99394.13
2022-08-24T19:47:02.458Z,99397.72
2022-08-24T19:49:34.875Z,99397.53
2022-08-24T19:52:04.610Z,99394.56
2022-08-24T19:54:38.165Z,99393.44
2022-08-24T19:57:41.503Z,99392.09
2022-08-24T20:00:35.149Z,99399.50
2022-08-24T20:03:06.295Z,99393.56
2022-08-24T20:05:37.625Z,99401.84
2022-08-24T20:08:06.826Z,99395.34
2022-08-24T20:10:35.964Z,99400.28
2022-08-24T20:13:06.758Z,99403.56
2022-08-24T20:15:36.457Z,99402.50
2022-08-24T20:18:05.826Z,99411.50
2022-08-24T20:20:34.980Z,99410.75
2022-08-24T20:23:06.428Z,99409.09
2022-08-24T20:25:37.437Z,99404.78
2022-08-24T20:30:57.680Z,99413.09
2022-08-24T20:33:28.068Z,99411.47
2022-08-24T20:35:58.060Z,99410.97
2022-08-24T20:38:29.389Z,99405.03
2022-08-24T20:41:02.137Z,99402.31
2022-08-24T20:43:32.423Z,99403.97
2022-08-24T20:46:01.861Z,99400.50
2022-08-24T20:48:34.129Z,99398.06
2022-08-24T20:51:03.448Z,99401.88
2022-08-24T20:53:32.246Z,99401.63
2022-08-24T20:56:08.585Z,99396.78
2022-08-24T20:58:40.666Z,99396.78
2022-08-24T21:01:10.211Z,99393.81
2022-08-24T21:03:39.413Z,99395.78
2022-08-24T21:06:09.946Z,99399.31
2022-08-24T21:08:38.902Z,99403.19
2022-08-24T21:11:07.761Z,99397.22
2022-08-24T21:13:37.907Z,99395.25
2022-08-24T21:16:07.675Z,99395.56
2022-08-24T21:18:37.319Z,99395.59
2022-08-24T21:21:06.741Z,99399.97
2022-08-24T21:23:36.197Z,99403.22
2022-08-24T21:26:08.878Z,99400.50
2022-08-24T21:28:43.560Z,99399.97
2022-08-24T21:31:12.532Z,99396.72
2022-08-24T21:33:58.745Z,99401.09
2022-08-24T21:36:31.959Z,99409.59
2022-08-24T21:39:00.833Z,99404.44
2022-08-24T21:41:29.960Z,99406.69
2022-08-24T21:44:00.635Z,99402.88
2022-08-24T21:46:34.940Z,99414.31
2022-08-24T21:49:04.011Z,99414.56
2022-08-24T21:51:33.063Z,99415.38
2022-08-24T21:54:02.025Z,99414.88
2022-08-24T21:56:34.532Z,99412.19
2022-08-24T21:59:05.049Z,99411.66
2022-08-24T22:01:34.052Z,99410.84
2022-08-24T22:04:03.074Z,99413.28
2022-08-24T22:06:33.622Z,99419.22
2022-08-24T22:09:04.815Z,99412.75
2022-08-24T22:11:33.691Z,99411.69
2022-08-24T22:14:05.431Z,99414.69
2022-08-24T22:16:36.895Z,99413.63
2022-08-24T22:19:06.295Z,99410.13
2022-08-24T22:21:36.415Z,99411.22
2022-08-24T22:24:05.952Z,99397.13
2022-08-24T22:26:36.801Z,99401.50
2022-08-24T22:29:09.949Z,99392.00
2022-08-24T22:31:42.492Z,99391.72
2022-08-24T22:34:16.581Z,99387.94
2022-08-24T22:36:50.542Z,99390.13
2022-08-24T22:39:19.760Z,99394.47
2022-08-24T22:41:48.552Z,99380.91
2022-08-24T22:44:22.412Z,99392.88
2022-08-24T22:46:54.089Z,99392.59
2022-08-24T22:49:26.258Z,99383.13
2022-08-24T22:51:55.591Z,99384.44
2022-08-24T22:54:26.644Z,99379.31
2022-08-24T22:56:58.397Z,99382.34
2022-08-24T22:59:31.807Z,99378.31
2022-08-24T23:02:00.493Z,99384.28
2022-08-24T23:04:33.250Z,99374.00
2022-08-24T23:07:03.170Z,99386.47
2022-08-24T23:09:44.069Z,99381.59
2022-08-24T23:12:19.815Z,99380.53
2022-08-24T23:14:51.482Z,99381.34
2022-08-24T23:17:22.312Z,99380.00
2022-08-24T23:20:05.878Z,99386.53
2022-08-24T23:22:38.928Z,99380.59
2022-08-24T23:25:10.553Z,99374.63
2022-08-24T23:27:39.669Z,99375.97
2022-08-24T23:30:15.142Z,99378.44
2022-08-24T23:32:44.193Z,99375.16
2022-08-24T23:35:13.167Z,99372.72
2022-08-24T23:37:42.296Z,99373.25
2022-08-24T23:40:12.422Z,99365.13
2022-08-24T23:42:41.168Z,99370.00
2022-08-24T23:45:13.107Z,99363.22
2022-08-24T23:47:42.210Z,99369.78
2022-08-24T23:50:12.021Z,99366.00
2022-08-24T23:52:41.936Z,99366.00
2022-08-24T23:55:21.190Z,99362.47
2022-08-24T23:57:52.381Z,99366.53
